22:09
Airports
Links
Donate
Help keep this website running!
PayPal
Bitcoin
METAR
KLAX 172153Z 25010KT 10SM FEW150 FEW250 28/09 A2992 RMK AO2 SLP130 T02830089
Current Weather Conditions at KLAX
VFR 21:53:00 17-10-17
Automated station
Altimeter:29.92 hg
Temp:28.3°c 82°f
Dew point:8.9°c 46°f
Wind:10 knots, 11.5 mph, 5 m/s, from 250°
Visibility:10.0 statute miles
25000(FEW) A few
15000(FEW) A few
Past METAR reports
VFR 20:53:00 17-10-17
Automated station
Altimeter:29.95 hg
Temp:26.1°c 79°f
Dew point:13.9°c 55°f
Wind:11 knots, 12.7 mph, 6 m/s, from 250°
Visibility:10.0 statute miles
19000(SCT) Scattered
16000(SCT) Scattered
6000(FEW) A few
2500(FEW) A few
KLAX 172053Z 25011KT 10SM FEW025 FEW060 SCT160 SCT190 26/14 A2995 RMK AO2 SLP140 T02610139 58019
VFR 19:53:00 17-10-17
Automated station
Altimeter:29.98 hg
Temp:25.6°c 77°f
Dew point:17.2°c 63°f
Wind:11 knots, 12.7 mph, 6 m/s, from 250°
Visibility:10.0 statute miles
20000(SCT) Scattered
16000(SCT) Scattered
6000(FEW) A few
4700(FEW) A few
KLAX 171953Z 25011KT 10SM FEW047 FEW060 SCT160 SCT200 26/17 A2998 RMK AO2 SLP149 T02560172
VFR 18:53:00 17-10-17
Automated station
Altimeter:29.99 hg
Temp:30.0°c 86°f
Dew point:3.9°c 37°f
Wind:9 knots, 10.4 mph, 5 m/s, from 260°
Visibility:10.0 statute miles
20000(SCT) Scattered
16000(SCT) Scattered
6000(FEW) A few
4500(FEW) A few
KLAX 171853Z 26009KT 10SM FEW045 FEW060 SCT160 SCT200 30/04 A2999 RMK AO2 SLP153 FU FEW060 T03000039
VFR 17:53:00 17-10-17
Automated station
Altimeter:30.00 hg
Temp:29.4°c 84°f
Dew point:3.3°c 37°f
Wind:3 knots, 3.5 mph, 2 m/s, from 210°
Visibility:10.0 statute miles
20000(SCT) Scattered
16000(SCT) Scattered
6000(FEW) A few
2200(FEW) A few
KLAX 171753Z 21003KT 10SM FEW022 FEW060 SCT160 SCT200 29/03 A3000 RMK AO2 SLP158 T02940033 10300 20194 50002
VFR 16:53:00 17-10-17
Automated station
Altimeter:30.01 hg
Temp:26.7°c 79°f
Dew point:10.0°c 50°f
Wind:3 knots, 3.5 mph, 2 m/s, from 310°
Visibility:10.0 statute miles
20000(SCT) Scattered
15000(SCT) Scattered
6000(FEW) A few
2000(FEW) A few
KLAX 171653Z 31003KT 10SM FEW020 FEW060 SCT150 SCT200 27/10 A3001 RMK AO2 SLP161 FU FEW060 T02670100
TAF
KLAX 172045Z 1721/1824 26012KT P6SM FEW050 SCT200 FM180300 26005KT P6SM BKN150 FM181300 04003KT P6SM FEW020 FM181500 06003KT 5SM HZ FEW018 FM182000 27013KT P6SM SCT250
Forecast at KLAX
21:00 17-10-17 to 03:00 18-10-17
Wind:12 Knots from 260°
Visibility:6.21 statute miles
5000FEW A few
20000SCT Scattered
FM 03:00 18-10-17 to 13:00 18-10-17
Wind:5 Knots from 260°
Visibility:6.21 statute miles
15000BKN Broken
FM 13:00 18-10-17 to 15:00 18-10-17
Wind:3 Knots from 40°
Visibility:6.21 statute miles
2000FEW A few
FM 15:00 18-10-17 to 20:00 18-10-17
HZ
Wind:3 Knots from 60°
Visibility:5.0 statute miles
1800FEW A few
FM 20:00 18-10-17 to 00:00 19-10-17
Wind:13 Knots from 270°
Visibility:6.21 statute miles
25000SCT Scattered